sensor_id;sensor_type;location;lat;lon;timestamp;temperature;humidity
3001;DHT22;1510;51.072;6.678;2022-11-20T00:01:11;3.70;99.90
3001;DHT22;1510;51.072;6.678;2022-11-20T00:03:38;3.70;99.90
3001;DHT22;1510;51.072;6.678;2022-11-20T00:06:06;3.90;99.90
3001;DHT22;1510;51.072;6.678;2022-11-20T00:08:34;3.70;99.90
3001;DHT22;1510;51.072;6.678;2022-11-20T00:11:03;3.80;99.90
3001;DHT22;1510;51.072;6.678;2022-11-20T00:13:30;3.80;99.90
3001;DHT22;1510;51.072;6.678;2022-11-20T00:15:57;3.70;99.90
3001;DHT22;1510;51.072;6.678;2022-11-20T00:18:26;3.70;99.90
3001;DHT22;1510;51.072;6.678;2022-11-20T00:20:53;3.70;99.90
3001;DHT22;1510;51.072;6.678;2022-11-20T00:23:20;3.80;99.90
3001;DHT22;1510;51.072;6.678;2022-11-20T00:25:46;3.80;99.90
3001;DHT22;1510;51.072;6.678;2022-11-20T00:28:13;3.70;99.90
3001;DHT22;1510;51.072;6.678;2022-11-20T00:30:40;3.70;99.90
3001;DHT22;1510;51.072;6.678;2022-11-20T00:33:07;3.80;99.90
3001;DHT22;1510;51.072;6.678;2022-11-20T00:35:35;3.80;99.90
3001;DHT22;1510;51.072;6.678;2022-11-20T00:38:02;3.70;99.90
3001;DHT22;1510;51.072;6.678;2022-11-20T00:40:28;3.90;99.90
3001;DHT22;1510;51.072;6.678;2022-11-20T00:42:55;3.70;99.90
3001;DHT22;1510;51.072;6.678;2022-11-20T00:45:22;3.80;99.90
3001;DHT22;1510;51.072;6.678;2022-11-20T00:47:49;3.80;99.90
3001;DHT22;1510;51.072;6.678;2022-11-20T00:50:16;3.80;99.90
3001;DHT22;1510;51.072;6.678;2022-11-20T00:52:44;3.90;99.90
3001;DHT22;1510;51.072;6.678;2022-11-20T00:55:11;3.70;99.90
3001;DHT22;1510;51.072;6.678;2022-11-20T00:57:37;3.90;99.90
3001;DHT22;1510;51.072;6.678;2022-11-20T01:00:05;3.80;99.90
3001;DHT22;1510;51.072;6.678;2022-11-20T01:02:32;3.80;99.90
3001;DHT22;1510;51.072;6.678;2022-11-20T01:04:59;3.80;99.90
3001;DHT22;1510;51.072;6.678;2022-11-20T01:07:26;3.80;99.90
3001;DHT22;1510;51.072;6.678;2022-11-20T01:09:54;3.80;99.90
3001;DHT22;1510;51.072;6.678;2022-11-20T01:12:21;3.80;99.90
3001;DHT22;1510;51.072;6.678;2022-11-20T01:14:48;3.90;99.90
3001;DHT22;1510;51.072;6.678;2022-11-20T01:17:15;3.90;99.90
3001;DHT22;1510;51.072;6.678;2022-11-20T01:19:41;3.80;99.90
3001;DHT22;1510;51.072;6.678;2022-11-20T01:22:09;3.90;99.90
3001;DHT22;1510;51.072;6.678;2022-11-20T01:24:36;3.80;99.90
3001;DHT22;1510;51.072;6.678;2022-11-20T01:27:04;3.80;99.90
3001;DHT22;1510;51.072;6.678;2022-11-20T01:29:31;3.80;99.90
3001;DHT22;1510;51.072;6.678;2022-11-20T01:31:58;3.80;99.90
3001;DHT22;1510;51.072;6.678;2022-11-20T01:34:24;3.70;99.90
3001;DHT22;1510;51.072;6.678;2022-11-20T01:36:52;3.70;99.90
3001;DHT22;1510;51.072;6.678;2022-11-20T01:39:20;3.70;99.90
3001;DHT22;1510;51.072;6.678;2022-11-20T01:41:48;3.70;99.90
3001;DHT22;1510;51.072;6.678;2022-11-20T01:44:51;3.70;99.90
3001;DHT22;1510;51.072;6.678;2022-11-20T01:47:24;3.60;99.90
3001;DHT22;1510;51.072;6.678;2022-11-20T01:49:56;3.80;99.90
3001;DHT22;1510;51.072;6.678;2022-11-20T01:52:29;3.70;99.90
3001;DHT22;1510;51.072;6.678;2022-11-20T01:55:00;3.70;99.90
3001;DHT22;1510;51.072;6.678;2022-11-20T01:57:30;3.60;99.90
3001;DHT22;1510;51.072;6.678;2022-11-20T02:00:03;3.70;99.90
3001;DHT22;1510;51.072;6.678;2022-11-20T02:02:30;3.70;99.90
3001;DHT22;1510;51.072;6.678;2022-11-20T02:05:04;3.70;99.90
3001;DHT22;1510;51.072;6.678;2022-11-20T02:07:33;3.60;99.90
3001;DHT22;1510;51.072;6.678;2022-11-20T02:10:00;3.60;99.90
3001;DHT22;1510;51.072;6.678;2022-11-20T02:12:27;3.60;99.90
3001;DHT22;1510;51.072;6.678;2022-11-20T02:15:13;3.70;99.90
3001;DHT22;1510;51.072;6.678;2022-11-20T02:17:39;3.60;99.90
3001;DHT22;1510;51.072;6.678;2022-11-20T02:20:07;3.60;99.90
3001;DHT22;1510;51.072;6.678;2022-11-20T02:22:40;3.60;99.90
3001;DHT22;1510;51.072;6.678;2022-11-20T02:25:11;3.70;99.90
3001;DHT22;1510;51.072;6.678;2022-11-20T02:27:38;3.60;99.90
3001;DHT22;1510;51.072;6.678;2022-11-20T02:30:06;3.60;99.90
3001;DHT22;1510;51.072;6.678;2022-11-20T02:32:35;3.60;99.90
3001;DHT22;1510;51.072;6.678;2022-11-20T02:35:07;3.60;99.90
3001;DHT22;1510;51.072;6.678;2022-11-20T02:37:36;3.60;99.90
3001;DHT22;1510;51.072;6.678;2022-11-20T02:40:05;3.60;99.90
3001;DHT22;1510;51.072;6.678;2022-11-20T02:42:33;3.50;99.90
3001;DHT22;1510;51.072;6.678;2022-11-20T02:45:00;3.60;99.90
3001;DHT22;1510;51.072;6.678;2022-11-20T02:47:27;3.70;99.90
3001;DHT22;1510;51.072;6.678;2022-11-20T02:49:54;3.60;99.90
3001;DHT22;1510;51.072;6.678;2022-11-20T02:52:21;3.60;99.90
3001;DHT22;1510;51.072;6.678;2022-11-20T02:54:48;3.60;99.90
3001;DHT22;1510;51.072;6.678;2022-11-20T02:57:14;3.60;99.90
3001;DHT22;1510;51.072;6.678;2022-11-20T02:59:42;3.50;99.90
3001;DHT22;1510;51.072;6.678;2022-11-20T03:02:09;3.60;99.90
3001;DHT22;1510;51.072;6.678;2022-11-20T03:04:36;3.60;99.90
3001;DHT22;1510;51.072;6.678;2022-11-20T03:07:03;3.50;99.90
3001;DHT22;1510;51.072;6.678;2022-11-20T03:09:30;3.60;99.90
3001;DHT22;1510;51.072;6.678;2022-11-20T03:11:57;3.70;99.90
3001;DHT22;1510;51.072;6.678;2022-11-20T03:14:24;3.50;99.90
3001;DHT22;1510;51.072;6.678;2022-11-20T03:16:52;3.50;99.90
3001;DHT22;1510;51.072;6.678;2022-11-20T03:19:19;3.50;99.90
3001;DHT22;1510;51.072;6.678;2022-11-20T03:21:45;3.50;99.90
3001;DHT22;1510;51.072;6.678;2022-11-20T03:24:12;3.60;99.90
3001;DHT22;1510;51.072;6.678;2022-11-20T03:26:39;3.50;99.90
3001;DHT22;1510;51.072;6.678;2022-11-20T03:29:06;3.40;99.90
3001;DHT22;1510;51.072;6.678;2022-11-20T03:31:35;3.30;99.90
3001;DHT22;1510;51.072;6.678;2022-11-20T03:34:07;3.30;99.90
3001;DHT22;1510;51.072;6.678;2022-11-20T03:36:35;3.10;99.90
3001;DHT22;1510;51.072;6.678;2022-11-20T03:39:03;3.00;99.90
3001;DHT22;1510;51.072;6.678;2022-11-20T03:41:34;2.80;99.90
3001;DHT22;1510;51.072;6.678;2022-11-20T03:44:04;2.50;99.90
3001;DHT22;1510;51.072;6.678;2022-11-20T03:46:31;2.30;99.90
3001;DHT22;1510;51.072;6.678;2022-11-20T03:48:58;2.30;99.90
3001;DHT22;1510;51.072;6.678;2022-11-20T03:51:28;2.30;99.90
3001;DHT22;1510;51.072;6.678;2022-11-20T03:53:57;2.20;99.90
3001;DHT22;1510;51.072;6.678;2022-11-20T03:56:26;2.30;99.90
3001;DHT22;1510;51.072;6.678;2022-11-20T03:58:53;2.30;99.90
3001;DHT22;1510;51.072;6.678;2022-11-20T04:01:22;2.40;99.90
3001;DHT22;1510;51.072;6.678;2022-11-20T04:03:51;2.40;99.90
3001;DHT22;1510;51.072;6.678;2022-11-20T04:06:20;2.60;99.90
3001;DHT22;1510;51.072;6.678;2022-11-20T04:08:49;2.50;99.90
3001;DHT22;1510;51.072;6.678;2022-11-20T04:11:17;2.70;99.90
3001;DHT22;1510;51.072;6.678;2022-11-20T04:13:47;2.70;99.90
3001;DHT22;1510;51.072;6.678;2022-11-20T04:16:14;2.80;99.90
3001;DHT22;1510;51.072;6.678;2022-11-20T04:18:41;2.80;99.90
3001;DHT22;1510;51.072;6.678;2022-11-20T04:21:08;2.80;99.90
3001;DHT22;1510;51.072;6.678;2022-11-20T04:23:38;2.80;99.90
3001;DHT22;1510;51.072;6.678;2022-11-20T04:26:08;2.80;99.90
3001;DHT22;1510;51.072;6.678;2022-11-20T04:28:35;2.90;99.90
3001;DHT22;1510;51.072;6.678;2022-11-20T04:31:04;2.90;99.90
3001;DHT22;1510;51.072;6.678;2022-11-20T04:33:31;2.90;99.90
3001;DHT22;1510;51.072;6.678;2022-11-20T04:36:01;3.00;99.90
3001;DHT22;1510;51.072;6.678;2022-11-20T04:38:28;3.00;99.90
3001;DHT22;1510;51.072;6.678;2022-11-20T04:40:58;3.10;99.90
3001;DHT22;1510;51.072;6.678;2022-11-20T04:43:27;3.10;99.90
3001;DHT22;1510;51.072;6.678;2022-11-20T04:45:54;3.20;99.90
3001;DHT22;1510;51.072;6.678;2022-11-20T04:48:22;3.10;99.90
3001;DHT22;1510;51.072;6.678;2022-11-20T04:50:49;3.20;99.90
3001;DHT22;1510;51.072;6.678;2022-11-20T04:53:16;3.10;99.90
3001;DHT22;1510;51.072;6.678;2022-11-20T04:55:42;3.10;99.90
3001;DHT22;1510;51.072;6.678;2022-11-20T04:58:09;3.10;99.90
3001;DHT22;1510;51.072;6.678;2022-11-20T05:00:38;3.20;99.90
3001;DHT22;1510;51.072;6.678;2022-11-20T05:03:04;3.10;99.90
3001;DHT22;1510;51.072;6.678;2022-11-20T05:05:32;3.00;99.90
3001;DHT22;1510;51.072;6.678;2022-11-20T05:07:59;3.00;99.90
3001;DHT22;1510;51.072;6.678;2022-11-20T05:10:27;2.90;99.90
3001;DHT22;1510;51.072;6.678;2022-11-20T05:12:53;2.90;99.90
3001;DHT22;1510;51.072;6.678;2022-11-20T05:15:20;2.80;99.90
3001;DHT22;1510;51.072;6.678;2022-11-20T05:17:49;2.80;99.90
3001;DHT22;1510;51.072;6.678;2022-11-20T05:20:16;2.80;99.90
3001;DHT22;1510;51.072;6.678;2022-11-20T05:22:43;2.80;99.90
3001;DHT22;1510;51.072;6.678;2022-11-20T05:25:10;2.90;99.90
3001;DHT22;1510;51.072;6.678;2022-11-20T05:27:37;2.90;99.90
3001;DHT22;1510;51.072;6.678;2022-11-20T05:30:05;3.00;99.90
3001;DHT22;1510;51.072;6.678;2022-11-20T05:32:32;3.00;99.90
3001;DHT22;1510;51.072;6.678;2022-11-20T05:35:00;2.90;99.90
3001;DHT22;1510;51.072;6.678;2022-11-20T05:37:27;2.90;99.90
3001;DHT22;1510;51.072;6.678;2022-11-20T05:39:54;2.90;99.90
3001;DHT22;1510;51.072;6.678;2022-11-20T05:42:21;3.00;99.90
3001;DHT22;1510;51.072;6.678;2022-11-20T05:44:57;3.00;99.90
3001;DHT22;1510;51.072;6.678;2022-11-20T05:47:24;3.00;99.90
3001;DHT22;1510;51.072;6.678;2022-11-20T05:49:51;3.00;99.90
3001;DHT22;1510;51.072;6.678;2022-11-20T05:52:19;2.90;99.90
3001;DHT22;1510;51.072;6.678;2022-11-20T05:54:46;2.90;99.90
3001;DHT22;1510;51.072;6.678;2022-11-20T05:57:13;2.90;99.90
3001;DHT22;1510;51.072;6.678;2022-11-20T05:59:39;2.80;99.90
3001;DHT22;1510;51.072;6.678;2022-11-20T06:02:06;2.70;99.90
3001;DHT22;1510;51.072;6.678;2022-11-20T06:04:33;2.80;99.90
3001;DHT22;1510;51.072;6.678;2022-11-20T06:07:00;2.70;99.90
3001;DHT22;1510;51.072;6.678;2022-11-20T06:09:28;2.70;99.90
3001;DHT22;1510;51.072;6.678;2022-11-20T06:11:55;2.60;99.90
3001;DHT22;1510;51.072;6.678;2022-11-20T06:14:22;2.50;99.90
3001;DHT22;1510;51.072;6.678;2022-11-20T06:16:49;2.40;99.90
3001;DHT22;1510;51.072;6.678;2022-11-20T06:19:16;2.20;99.90
3001;DHT22;1510;51.072;6.678;2022-11-20T06:21:42;2.00;99.90
3001;DHT22;1510;51.072;6.678;2022-11-20T06:24:10;2.00;99.90
3001;DHT22;1510;51.072;6.678;2022-11-20T06:26:38;1.80;99.90
3001;DHT22;1510;51.072;6.678;2022-11-20T06:29:05;1.70;99.90
3001;DHT22;1510;51.072;6.678;2022-11-20T06:31:35;1.70;99.90
3001;DHT22;1510;51.072;6.678;2022-11-20T06:34:19;1.70;99.90
3001;DHT22;1510;51.072;6.678;2022-11-20T06:36:52;1.70;99.90
3001;DHT22;1510;51.072;6.678;2022-11-20T06:39:23;1.60;99.90
3001;DHT22;1510;51.072;6.678;2022-11-20T06:41:51;1.60;99.90
3001;DHT22;1510;51.072;6.678;2022-11-20T06:44:18;1.60;99.90
3001;DHT22;1510;51.072;6.678;2022-11-20T06:46:51;1.60;99.90
3001;DHT22;1510;51.072;6.678;2022-11-20T06:49:25;1.50;99.90
3001;DHT22;1510;51.072;6.678;2022-11-20T06:52:00;1.30;99.90
3001;DHT22;1510;51.072;6.678;2022-11-20T06:54:31;1.30;99.90
3001;DHT22;1510;51.072;6.678;2022-11-20T06:57:03;1.30;99.90
3001;DHT22;1510;51.072;6.678;2022-11-20T06:59:30;1.20;99.90
3001;DHT22;1510;51.072;6.678;2022-11-20T07:02:00;1.20;99.90
3001;DHT22;1510;51.072;6.678;2022-11-20T07:04:27;1.40;99.90
3001;DHT22;1510;51.072;6.678;2022-11-20T07:07:03;1.50;99.90
3001;DHT22;1510;51.072;6.678;2022-11-20T07:09:31;1.70;99.90
3001;DHT22;1510;51.072;6.678;2022-11-20T07:12:00;1.80;99.90
3001;DHT22;1510;51.072;6.678;2022-11-20T07:14:29;1.80;99.90
3001;DHT22;1510;51.072;6.678;2022-11-20T07:16:57;2.00;99.90
3001;DHT22;1510;51.072;6.678;2022-11-20T07:19:24;2.00;99.90
3001;DHT22;1510;51.072;6.678;2022-11-20T07:21:51;2.10;99.90
3001;DHT22;1510;51.072;6.678;2022-11-20T07:24:28;2.10;99.90
3001;DHT22;1510;51.072;6.678;2022-11-20T07:26:54;2.30;99.90
3001;DHT22;1510;51.072;6.678;2022-11-20T07:29:21;2.30;99.90
3001;DHT22;1510;51.072;6.678;2022-11-20T07:31:50;2.50;99.90
3001;DHT22;1510;51.072;6.678;2022-11-20T07:34:17;2.40;99.90
3001;DHT22;1510;51.072;6.678;2022-11-20T07:36:47;2.40;99.90
3001;DHT22;1510;51.072;6.678;2022-11-20T07:39:14;2.40;99.90
3001;DHT22;1510;51.072;6.678;2022-11-20T07:41:40;2.50;99.90
3001;DHT22;1510;51.072;6.678;2022-11-20T07:44:07;2.70;99.90
3001;DHT22;1510;51.072;6.678;2022-11-20T07:46:34;2.70;99.90
3001;DHT22;1510;51.072;6.678;2022-11-20T07:49:04;2.70;99.90
3001;DHT22;1510;51.072;6.678;2022-11-20T07:51:34;2.80;99.90
3001;DHT22;1510;51.072;6.678;2022-11-20T07:54:04;2.70;99.90
3001;DHT22;1510;51.072;6.678;2022-11-20T07:56:31;2.80;99.90
3001;DHT22;1510;51.072;6.678;2022-11-20T07:59:07;2.90;99.90
3001;DHT22;1510;51.072;6.678;2022-11-20T08:01:34;2.90;99.90
3001;DHT22;1510;51.072;6.678;2022-11-20T08:04:02;3.00;99.90
3001;DHT22;1510;51.072;6.678;2022-11-20T08:06:29;2.90;99.90
3001;DHT22;1510;51.072;6.678;2022-11-20T08:08:59;3.00;99.90
3001;DHT22;1510;51.072;6.678;2022-11-20T08:11:26;3.00;99.90
3001;DHT22;1510;51.072;6.678;2022-11-20T08:14:10;3.20;99.90
3001;DHT22;1510;51.072;6.678;2022-11-20T08:16:41;3.20;99.90
3001;DHT22;1510;51.072;6.678;2022-11-20T08:19:15;3.20;99.90
3001;DHT22;1510;51.072;6.678;2022-11-20T08:21:43;3.30;99.90
3001;DHT22;1510;51.072;6.678;2022-11-20T08:24:10;3.40;99.90
3001;DHT22;1510;51.072;6.678;2022-11-20T08:26:40;3.40;99.90
3001;DHT22;1510;51.072;6.678;2022-11-20T08:29:07;3.60;99.90
3001;DHT22;1510;51.072;6.678;2022-11-20T08:31:35;3.60;99.90
3001;DHT22;1510;51.072;6.678;2022-11-20T08:34:05;3.60;99.90
3001;DHT22;1510;51.072;6.678;2022-11-20T08:36:35;3.70;99.90
3001;DHT22;1510;51.072;6.678;2022-11-20T08:39:03;3.80;99.90
3001;DHT22;1510;51.072;6.678;2022-11-20T08:41:30;3.90;99.90
3001;DHT22;1510;51.072;6.678;2022-11-20T08:43:59;4.00;99.90
3001;DHT22;1510;51.072;6.678;2022-11-20T08:46:32;4.00;99.90
3001;DHT22;1510;51.072;6.678;2022-11-20T08:49:02;4.20;99.90
3001;DHT22;1510;51.072;6.678;2022-11-20T08:51:29;4.10;99.90
3001;DHT22;1510;51.072;6.678;2022-11-20T08:54:00;4.20;99.90
3001;DHT22;1510;51.072;6.678;2022-11-20T08:56:28;4.20;99.90
3001;DHT22;1510;51.072;6.678;2022-11-20T08:58:54;4.30;99.90
3001;DHT22;1510;51.072;6.678;2022-11-20T09:01:23;4.40;99.90
3001;DHT22;1510;51.072;6.678;2022-11-20T09:03:50;4.70;99.90
3001;DHT22;1510;51.072;6.678;2022-11-20T09:06:17;4.60;99.90
3001;DHT22;1510;51.072;6.678;2022-11-20T09:08:44;4.60;99.90
3001;DHT22;1510;51.072;6.678;2022-11-20T09:11:13;4.60;99.90
3001;DHT22;1510;51.072;6.678;2022-11-20T09:13:40;4.60;99.90
3001;DHT22;1510;51.072;6.678;2022-11-20T09:16:08;4.80;99.90
3001;DHT22;1510;51.072;6.678;2022-11-20T09:18:36;4.80;99.90
3001;DHT22;1510;51.072;6.678;2022-11-20T09:21:05;4.80;99.90
3001;DHT22;1510;51.072;6.678;2022-11-20T09:23:34;4.90;99.90
3001;DHT22;1510;51.072;6.678;2022-11-20T09:26:02;4.80;99.90
3001;DHT22;1510;51.072;6.678;2022-11-20T09:28:31;4.90;99.90
3001;DHT22;1510;51.072;6.678;2022-11-20T09:30:58;4.90;99.90
3001;DHT22;1510;51.072;6.678;2022-11-20T09:33:25;5.00;99.90
3001;DHT22;1510;51.072;6.678;2022-11-20T09:35:52;5.20;99.90
3001;DHT22;1510;51.072;6.678;2022-11-20T09:38:18;5.20;99.90
3001;DHT22;1510;51.072;6.678;2022-11-20T09:40:48;5.10;99.90
3001;DHT22;1510;51.072;6.678;2022-11-20T09:43:21;5.20;99.90
3001;DHT22;1510;51.072;6.678;2022-11-20T09:46:04;5.20;99.90
3001;DHT22;1510;51.072;6.678;2022-11-20T09:48:48;5.20;99.90
3001;DHT22;1510;51.072;6.678;2022-11-20T09:51:30;5.20;99.90
3001;DHT22;1510;51.072;6.678;2022-11-20T09:54:08;5.20;99.90
3001;DHT22;1510;51.072;6.678;2022-11-20T09:56:38;5.20;99.90
3001;DHT22;1510;51.072;6.678;2022-11-20T09:59:07;5.30;99.90
3001;DHT22;1510;51.072;6.678;2022-11-20T10:01:40;5.50;99.90
3001;DHT22;1510;51.072;6.678;2022-11-20T10:04:12;5.60;99.90
3001;DHT22;1510;51.072;6.678;2022-11-20T10:06:46;5.90;99.90
3001;DHT22;1510;51.072;6.678;2022-11-20T10:09:20;6.20;99.90
3001;DHT22;1510;51.072;6.678;2022-11-20T10:11:54;6.20;99.90
3001;DHT22;1510;51.072;6.678;2022-11-20T10:14:29;6.50;99.90
3001;DHT22;1510;51.072;6.678;2022-11-20T10:17:03;6.60;99.90
3001;DHT22;1510;51.072;6.678;2022-11-20T10:19:52;6.50;99.70
3001;DHT22;1510;51.072;6.678;2022-11-20T10:22:34;6.50;99.30
3001;DHT22;1510;51.072;6.678;2022-11-20T10:25:09;6.50;99.50
3001;DHT22;1510;51.072;6.678;2022-11-20T10:28:06;6.50;99.20
3001;DHT22;1510;51.072;6.678;2022-11-20T10:30:38;6.70;98.70
3001;DHT22;1510;51.072;6.678;2022-11-20T10:33:14;6.80;98.20
3001;DHT22;1510;51.072;6.678;2022-11-20T10:35:44;6.90;98.50
3001;DHT22;1510;51.072;6.678;2022-11-20T10:38:18;7.10;98.20
3001;DHT22;1510;51.072;6.678;2022-11-20T10:40:53;7.30;98.30
3001;DHT22;1510;51.072;6.678;2022-11-20T10:43:41;7.40;97.40
3001;DHT22;1510;51.072;6.678;2022-11-20T10:46:12;7.40;97.00
3001;DHT22;1510;51.072;6.678;2022-11-20T10:48:43;7.40;96.70
3001;DHT22;1510;51.072;6.678;2022-11-20T10:51:21;7.60;97.10
3001;DHT22;1510;51.072;6.678;2022-11-20T10:53:57;7.40;97.00
3001;DHT22;1510;51.072;6.678;2022-11-20T10:56:31;7.30;96.90
3001;DHT22;1510;51.072;6.678;2022-11-20T11:02:14;7.20;97.00
3001;DHT22;1510;51.072;6.678;2022-11-20T11:04:45;7.00;96.90
3001;DHT22;1510;51.072;6.678;2022-11-20T11:07:16;6.80;96.80
3001;DHT22;1510;51.072;6.678;2022-11-20T11:09:47;6.70;97.70
3001;DHT22;1510;51.072;6.678;2022-11-20T11:12:14;6.50;98.00
3001;DHT22;1510;51.072;6.678;2022-11-20T11:14:46;6.40;98.30
3001;DHT22;1510;51.072;6.678;2022-11-20T11:17:27;6.30;98.80
3001;DHT22;1510;51.072;6.678;2022-11-20T11:20:04;6.30;99.00
3001;DHT22;1510;51.072;6.678;2022-11-20T11:22:33;6.20;99.50
3001;DHT22;1510;51.072;6.678;2022-11-20T11:25:00;6.10;99.80
3001;DHT22;1510;51.072;6.678;2022-11-20T11:27:27;6.10;99.90
3001;DHT22;1510;51.072;6.678;2022-11-20T11:30:11;6.00;99.90
3001;DHT22;1510;51.072;6.678;2022-11-20T11:32:39;6.00;99.90
3001;DHT22;1510;51.072;6.678;2022-11-20T11:35:20;6.00;99.90
3001;DHT22;1510;51.072;6.678;2022-11-20T11:37:48;6.00;99.90
3001;DHT22;1510;51.072;6.678;2022-11-20T11:40:17;6.10;99.90
3001;DHT22;1510;51.072;6.678;2022-11-20T11:42:50;6.10;99.90
3001;DHT22;1510;51.072;6.678;2022-11-20T11:45:18;6.10;99.90
3001;DHT22;1510;51.072;6.678;2022-11-20T11:47:46;6.20;99.90
3001;DHT22;1510;51.072;6.678;2022-11-20T11:50:20;6.20;99.90
3001;DHT22;1510;51.072;6.678;2022-11-20T11:52:55;6.10;99.80
3001;DHT22;1510;51.072;6.678;2022-11-20T11:55:30;6.10;99.90
3001;DHT22;1510;51.072;6.678;2022-11-20T11:58:06;6.00;99.90
3001;DHT22;1510;51.072;6.678;2022-11-20T12:00:35;6.10;99.90
3001;DHT22;1510;51.072;6.678;2022-11-20T12:03:11;6.00;99.90
3001;DHT22;1510;51.072;6.678;2022-11-20T12:05:43;5.90;99.90
3001;DHT22;1510;51.072;6.678;2022-11-20T12:08:15;6.00;99.90
3001;DHT22;1510;51.072;6.678;2022-11-20T12:10:47;6.00;99.90
3001;DHT22;1510;51.072;6.678;2022-11-20T12:13:25;6.00;99.90
3001;DHT22;1510;51.072;6.678;2022-11-20T12:15:53;6.00;99.90
3001;DHT22;1510;51.072;6.678;2022-11-20T12:18:21;6.10;99.90
3001;DHT22;1510;51.072;6.678;2022-11-20T12:21:00;6.00;99.90
3001;DHT22;1510;51.072;6.678;2022-11-20T12:23:39;6.00;99.90
3001;DHT22;1510;51.072;6.678;2022-11-20T12:26:13;5.90;99.90
3001;DHT22;1510;51.072;6.678;2022-11-20T12:28:52;6.00;99.90
3001;DHT22;1510;51.072;6.678;2022-11-20T12:31:37;5.90;99.90
3001;DHT22;1510;51.072;6.678;2022-11-20T12:34:18;5.90;99.90
3001;DHT22;1510;51.072;6.678;2022-11-20T12:36:55;5.90;99.90
3001;DHT22;1510;51.072;6.678;2022-11-20T12:39:39;6.10;99.90
3001;DHT22;1510;51.072;6.678;2022-11-20T12:45:46;6.20;99.90
3001;DHT22;1510;51.072;6.678;2022-11-20T12:51:29;6.40;99.90
3001;DHT22;1510;51.072;6.678;2022-11-20T12:54:11;6.30;99.90
3001;DHT22;1510;51.072;6.678;2022-11-20T12:56:49;6.40;99.90
3001;DHT22;1510;51.072;6.678;2022-11-20T12:59:26;6.20;99.90
3001;DHT22;1510;51.072;6.678;2022-11-20T13:01:58;6.30;99.90
3001;DHT22;1510;51.072;6.678;2022-11-20T13:04:41;6.30;99.90
3001;DHT22;1510;51.072;6.678;2022-11-20T13:07:12;6.50;99.90
3001;DHT22;1510;51.072;6.678;2022-11-20T13:09:45;6.50;99.90
3001;DHT22;1510;51.072;6.678;2022-11-20T13:12:16;6.50;99.90
3001;DHT22;1510;51.072;6.678;2022-11-20T13:14:50;6.50;99.90
3001;DHT22;1510;51.072;6.678;2022-11-20T13:17:24;6.50;99.90
3001;DHT22;1510;51.072;6.678;2022-11-20T13:19:53;6.50;99.90
3001;DHT22;1510;51.072;6.678;2022-11-20T13:22:26;6.50;99.90
3001;DHT22;1510;51.072;6.678;2022-11-20T13:24:55;6.50;99.90
3001;DHT22;1510;51.072;6.678;2022-11-20T13:27:22;6.50;99.90
3001;DHT22;1510;51.072;6.678;2022-11-20T13:30:02;6.60;99.90
3001;DHT22;1510;51.072;6.678;2022-11-20T13:32:48;6.60;99.90
3001;DHT22;1510;51.072;6.678;2022-11-20T13:35:25;6.70;99.90
3001;DHT22;1510;51.072;6.678;2022-11-20T13:38:00;6.80;99.90
3001;DHT22;1510;51.072;6.678;2022-11-20T13:40:29;6.90;99.90
3001;DHT22;1510;51.072;6.678;2022-11-20T13:43:02;6.80;99.90
3001;DHT22;1510;51.072;6.678;2022-11-20T13:45:31;6.80;99.80
3001;DHT22;1510;51.072;6.678;2022-11-20T13:48:02;6.70;99.90
3001;DHT22;1510;51.072;6.678;2022-11-20T13:50:40;6.60;99.90
3001;DHT22;1510;51.072;6.678;2022-11-20T13:53:23;6.60;99.90
3001;DHT22;1510;51.072;6.678;2022-11-20T13:56:00;6.60;99.90
3001;DHT22;1510;51.072;6.678;2022-11-20T14:01:22;6.60;99.90
3001;DHT22;1510;51.072;6.678;2022-11-20T14:03:50;6.60;99.90
3001;DHT22;1510;51.072;6.678;2022-11-20T14:06:26;6.70;99.90
3001;DHT22;1510;51.072;6.678;2022-11-20T14:08:54;6.60;99.90
3001;DHT22;1510;51.072;6.678;2022-11-20T14:11:24;6.60;99.90
3001;DHT22;1510;51.072;6.678;2022-11-20T14:13:59;6.60;99.90
3001;DHT22;1510;51.072;6.678;2022-11-20T14:16:30;6.50;99.90
3001;DHT22;1510;51.072;6.678;2022-11-20T14:19:00;6.40;99.90
3001;DHT22;1510;51.072;6.678;2022-11-20T14:21:43;6.30;99.90
3001;DHT22;1510;51.072;6.678;2022-11-20T14:24:11;6.30;99.90
3001;DHT22;1510;51.072;6.678;2022-11-20T14:26:41;6.30;99.90
3001;DHT22;1510;51.072;6.678;2022-11-20T14:29:11;6.20;99.90
3001;DHT22;1510;51.072;6.678;2022-11-20T14:31:38;6.20;99.90
3001;DHT22;1510;51.072;6.678;2022-11-20T14:34:05;6.20;99.90
3001;DHT22;1510;51.072;6.678;2022-11-20T14:36:32;6.30;99.90
3001;DHT22;1510;51.072;6.678;2022-11-20T14:38:59;6.10;99.90
3001;DHT22;1510;51.072;6.678;2022-11-20T14:41:28;6.10;99.90
3001;DHT22;1510;51.072;6.678;2022-11-20T14:43:59;6.10;99.90
3001;DHT22;1510;51.072;6.678;2022-11-20T14:46:27;6.00;99.90
3001;DHT22;1510;51.072;6.678;2022-11-20T14:48:57;6.00;99.90
3001;DHT22;1510;51.072;6.678;2022-11-20T14:51:30;6.00;99.90
3001;DHT22;1510;51.072;6.678;2022-11-20T14:54:08;6.00;99.90
3001;DHT22;1510;51.072;6.678;2022-11-20T14:56:35;5.90;99.90
3001;DHT22;1510;51.072;6.678;2022-11-20T14:59:03;5.90;99.90
3001;DHT22;1510;51.072;6.678;2022-11-20T15:01:32;5.90;99.90
3001;DHT22;1510;51.072;6.678;2022-11-20T15:04:01;5.90;99.90
3001;DHT22;1510;51.072;6.678;2022-11-20T15:06:28;5.90;99.90
3001;DHT22;1510;51.072;6.678;2022-11-20T15:08:56;5.70;99.90
3001;DHT22;1510;51.072;6.678;2022-11-20T15:11:28;5.80;99.90
3001;DHT22;1510;51.072;6.678;2022-11-20T15:13:56;5.70;99.90
3001;DHT22;1510;51.072;6.678;2022-11-20T15:16:25;5.70;99.90
3001;DHT22;1510;51.072;6.678;2022-11-20T15:18:53;5.70;99.90
3001;DHT22;1510;51.072;6.678;2022-11-20T15:21:20;5.60;99.90
3001;DHT22;1510;51.072;6.678;2022-11-20T15:23:47;5.60;99.90
3001;DHT22;1510;51.072;6.678;2022-11-20T15:26:17;5.60;99.90
3001;DHT22;1510;51.072;6.678;2022-11-20T15:28:46;5.60;99.90
3001;DHT22;1510;51.072;6.678;2022-11-20T15:31:16;5.50;99.90
3001;DHT22;1510;51.072;6.678;2022-11-20T15:33:45;5.50;99.90
3001;DHT22;1510;51.072;6.678;2022-11-20T15:36:12;5.50;99.90
3001;DHT22;1510;51.072;6.678;2022-11-20T15:38:39;5.40;99.90
3001;DHT22;1510;51.072;6.678;2022-11-20T15:41:06;5.50;99.90
3001;DHT22;1510;51.072;6.678;2022-11-20T15:43:33;5.40;99.90
3001;DHT22;1510;51.072;6.678;2022-11-20T15:46:04;5.40;99.90
3001;DHT22;1510;51.072;6.678;2022-11-20T15:48:34;5.50;99.90
3001;DHT22;1510;51.072;6.678;2022-11-20T15:51:05;5.50;99.90
3001;DHT22;1510;51.072;6.678;2022-11-20T15:53:33;5.40;99.90
3001;DHT22;1510;51.072;6.678;2022-11-20T15:56:00;5.30;99.90
3001;DHT22;1510;51.072;6.678;2022-11-20T15:58:26;5.40;99.90
3001;DHT22;1510;51.072;6.678;2022-11-20T16:00:53;5.40;99.90
3001;DHT22;1510;51.072;6.678;2022-11-20T16:03:20;5.40;99.90
3001;DHT22;1510;51.072;6.678;2022-11-20T16:05:47;5.40;99.90
3001;DHT22;1510;51.072;6.678;2022-11-20T16:08:15;5.50;99.90
3001;DHT22;1510;51.072;6.678;2022-11-20T16:10:42;5.40;99.90
3001;DHT22;1510;51.072;6.678;2022-11-20T16:13:13;5.50;99.90
3001;DHT22;1510;51.072;6.678;2022-11-20T16:15:59;5.50;99.90
3001;DHT22;1510;51.072;6.678;2022-11-20T16:18:27;5.40;99.90
3001;DHT22;1510;51.072;6.678;2022-11-20T16:20:54;5.50;99.90
3001;DHT22;1510;51.072;6.678;2022-11-20T16:23:24;5.50;99.90
3001;DHT22;1510;51.072;6.678;2022-11-20T16:25:51;5.50;99.90
3001;DHT22;1510;51.072;6.678;2022-11-20T16:28:18;5.50;99.90
3001;DHT22;1510;51.072;6.678;2022-11-20T16:30:45;5.50;99.90
3001;DHT22;1510;51.072;6.678;2022-11-20T16:33:14;5.50;99.90
3001;DHT22;1510;51.072;6.678;2022-11-20T16:35:42;5.60;99.90
3001;DHT22;1510;51.072;6.678;2022-11-20T16:38:09;5.60;99.90
3001;DHT22;1510;51.072;6.678;2022-11-20T16:40:37;5.60;99.90
3001;DHT22;1510;51.072;6.678;2022-11-20T16:43:08;5.50;99.90
3001;DHT22;1510;51.072;6.678;2022-11-20T16:45:40;5.60;99.90
3001;DHT22;1510;51.072;6.678;2022-11-20T16:48:11;5.60;99.90